Portada
METAR-TAF:

METAR-TAF

Aeropuertos :

Mont-De-Marsan, Francia

latitud: 43-55N, longitud: 000-30W, altitud: 62 m

Observación

El informe se hizo hace 23 minutos, a las 02:00 UTC
Viento 2 kt del oeste-suroeste
Temperatura 8°C
Humedad 93%
Presión 1033 hPa
Visibilidad: 8000 m
Escasas nubes a una altura de 3300 ft
Nubes dispersas a una altura de 5200 ft

METAR: LFBM 100200Z AUTO 24002KT 8000 FEW033 SCT052 08/07 Q1033 NOSIG

Hora: 03:23 (02:23 UTC)

Pronóstico

El informe se hizo hace 6 horas y 23 minutos, a las 20:00 UTC
Pronóstico válido del 09 a las 21 UTC al 10 a las 21 UTC
Viento 6 kt del oeste
Visibilidad 10 km o más
Nubes dispersas a una altura de 4500 ft
Probabilidad 30% :
Temporalmente
del 10 a las 04 UTC al 10 a las 07 UTC
Visibilidad: 2000 m
neblina

TAF: LFBM 092000Z 0921/1021 26006KT 9999 SCT045 PROB30 TEMPO 1004/1007 2000 BR

Observaciones y pronósticos meteorológicos de más de 4000 aeropuertos (mensajes METAR y TAF).

Los puntos amarillos y rojos representan las estaciones disponibles.

Ponga el ratón en el punto deseado para ver el nombre de la estación.

Haga clic para ver las observaciones y los pronósticos meteorológicos.

Para cambiar el mapa : haga clic en los botones verdes con una cruz de color negro para hacer un zoom, en el botón verde con un guión para alejar o en las flechas verdes para mapas adyacentes.


METAR-TAF: